Chippewa Falls, WI

2:06 PM CST on December 25, 2014 (GMT -0600)
Rusk County | Change Station
CLOSE
Current Station
Airport
Location: Ladysmith,
Elevation: 1237 ft
Nearby Weather Stations

Elev 1237 ft 45.49 °N, 91.00 °W | Updated 11 minutes ago

Overcast
Overcast
32 °F
Feels Like 26 °F
N
7
Wind Variable Wind from SSW

Today
High -- | Low -- °F
--% Chance of Precip.
Yesterday
High -- | Low -- °F
Precip. -- in
7:42 AM 4:29 PM
Waxing Crescent, 19% visible
Pressure 29.78 in
Visibility 3.0 miles
Clouds Overcast 1400 ft
Windchill 26 °F
Dew Point 29 °F
Humidity 90%
Rainfall 0.00 in
Snow Depth Not available.
UV 0 out of 12
Pollen .10 out of 12
Air Quality Not available.
Flu Activity Not available.
METAR KRCX 251955Z AUTO 20006KT 3SM -SN OVC014 00/M01 A2978 RMK AO2 T00001015

More Conditions Fewer Conditions

Pressure 29.78 in
Visibility 3.0 miles
Clouds Overcast 1400 ft
Windchill 26 °F
Dew Point 29 °F
Humidity 90%
Rainfall 0.00 in
Snow Depth Not available.
UV 0 out of 12
Pollen .10 out of 12
Air Quality Not available.
Flu Activity Not available.
METAR KRCX 251955Z AUTO 20006KT 3SM -SN OVC014 00/M01 A2978 RMK AO2 T00001015

More Conditions Fewer Conditions

10-Day Weather Forecast

Almanac

Astronomy

Dec. 25, 2014 Rise Set
Actual Time
Civil Twilight
Nautical Twilight
Astronomical Twilight
Moon
Length of Visible Light
Length of Day
Tomorrow will be .
, % of the Moon is Illuminated

Today's Extremes

State Highs State Lows

Community

WunderPhotos

Upload Photos

1,780,385 photos uploaded!

WunderBlogs® & News

Nearby

Air Quality

  Air Quality AQ Index Pollutant
Not available.

Snow Depth

Station Depth Elevation

Earthquake Activity

City Distance Mag. Time & Date
Minimum magnitude displayed is 2.5.

Coastal Water Temperatures

Place Temperature

Nearby Weather Stations